Archival Weather

Chicago O'Hare International

Chicago, Illinois (KORD)

Report from: Thursday, December 7, 2023 11:51 AM CST
Current time: Wednesday, April 24, 2024 1:36 PM CDT

Current weather – Weather history – Daily summaries
Weather forecast

Temperature8.3°C (46.9°F)
Wind chill5.4°C (41.7°F)
Dew point1.1°C (34.0°F)
Winds 10 kts (5.1 m/s, 11.5 mph) South-Southwest (210°)
Visibility10 mi. (16.1 km)
Clouds Few clouds 25,000 ft. (7,620 m)
Altimeter29.82 in.Hg (1010 mB)
Relative humidity60 %
Density altitude-597 ft. (-182 m)
Sea-level pressure101.0 kPa (1010 mB, 29.83 in.Hg)
Max temp last 6 hours8.3°C (46.9°F)
Min temp last 6 hours2.2°C (36.0°F)
Remarks Automated weather observing station with precipitation discriminator
Pressure falling more quickly
Flight conditions Visual Meteorological Conditions
Raw dataKORD 071751Z 21010KT 10SM FEW250 08/01 A2982 RMK AO2 SLP101 T00830011 10083 20022 58017
An error has occurred. This application may no longer respond until reloaded. Reload 🗙